createdAt,value
2024-01-28T00:02:06.668Z,100.00
2024-01-28T00:06:19.079Z,100.00
2024-01-28T00:10:27.433Z,100.00
2024-01-28T00:14:32.042Z,100.00
2024-01-28T00:18:34.422Z,100.00
2024-01-28T00:22:36.805Z,100.00
2024-01-28T00:26:42.330Z,100.00
2024-01-28T00:30:44.753Z,100.00
2024-01-28T00:34:49.946Z,100.00
2024-01-28T00:38:54.517Z,100.00
2024-01-28T00:42:57.408Z,100.00
2024-01-28T00:47:01.011Z,100.00
2024-01-28T00:51:03.511Z,100.00
2024-01-28T00:55:06.126Z,100.00
2024-01-28T00:59:08.238Z,100.00
2024-01-28T01:03:10.515Z,100.00
2024-01-28T01:07:13.183Z,100.00
2024-01-28T01:11:15.659Z,100.00
2024-01-28T01:15:17.903Z,100.00
2024-01-28T01:19:20.321Z,100.00
2024-01-28T01:23:23.261Z,100.00
2024-01-28T01:27:25.764Z,100.00
2024-01-28T01:31:28.088Z,100.00
2024-01-28T01:35:30.272Z,100.00
2024-01-28T01:39:32.796Z,100.00
2024-01-28T01:43:35.075Z,100.00
2024-01-28T01:47:37.451Z,100.00
2024-01-28T01:51:40.862Z,100.00
2024-01-28T01:55:43.655Z,100.00
2024-01-28T01:59:47.160Z,100.00
2024-01-28T02:03:49.568Z,100.00
2024-01-28T02:07:51.929Z,100.00
2024-01-28T02:11:54.277Z,100.00
2024-01-28T02:15:56.569Z,100.00
2024-01-28T02:19:59.903Z,100.00
2024-01-28T02:24:02.395Z,100.00
2024-01-28T02:28:04.878Z,100.00
2024-01-28T02:32:07.053Z,100.00
2024-01-28T02:36:09.749Z,100.00
2024-01-28T02:40:12.610Z,100.00
2024-01-28T02:44:15.927Z,100.00
2024-01-28T02:48:18.698Z,100.00
2024-01-28T02:52:21.018Z,100.00
2024-01-28T02:56:23.128Z,100.00
2024-01-28T03:00:25.420Z,100.00
2024-01-28T03:04:27.873Z,100.00
2024-01-28T03:08:30.071Z,100.00
2024-01-28T03:12:32.357Z,100.00
2024-01-28T03:16:35.411Z,100.00
2024-01-28T03:20:37.725Z,100.00
2024-01-28T03:24:41.870Z,100.00
2024-01-28T03:28:44.242Z,100.00
2024-01-28T03:32:48.304Z,100.00
2024-01-28T03:36:52.156Z,100.00
2024-01-28T03:40:54.338Z,100.00
2024-01-28T03:44:56.509Z,100.00
2024-01-28T03:48:59.083Z,100.00
2024-01-28T03:53:01.466Z,100.00
2024-01-28T03:57:04.017Z,100.00
2024-01-28T04:01:06.353Z,100.00
2024-01-28T04:05:09.366Z,100.00
2024-01-28T04:09:12.445Z,100.00
2024-01-28T04:13:15.183Z,100.00
2024-01-28T04:17:17.810Z,100.00
2024-01-28T04:21:20.193Z,100.00
2024-01-28T04:25:22.365Z,100.00
2024-01-28T04:29:24.461Z,100.00
2024-01-28T04:33:26.741Z,100.00
2024-01-28T04:37:28.988Z,100.00
2024-01-28T04:41:31.207Z,100.00
2024-01-28T04:45:33.506Z,100.00
2024-01-28T04:49:36.224Z,100.00
2024-01-28T04:53:39.232Z,100.00
2024-01-28T04:57:41.547Z,100.00
2024-01-28T05:01:44.392Z,100.00
2024-01-28T05:05:46.818Z,100.00
2024-01-28T05:09:49.530Z,100.00
2024-01-28T05:13:51.796Z,100.00
2024-01-28T05:17:54.078Z,100.00
2024-01-28T05:21:56.421Z,100.00
2024-01-28T05:26:03.107Z,100.00
2024-01-28T05:30:12.273Z,100.00
2024-01-28T05:34:19.849Z,100.00
2024-01-28T05:38:27.277Z,100.00
2024-01-28T05:42:38.582Z,100.00
2024-01-28T05:46:45.446Z,100.00
2024-01-28T05:50:52.195Z,100.00
2024-01-28T05:54:59.219Z,100.00
2024-01-28T05:59:06.187Z,100.00
2024-01-28T06:03:13.944Z,100.00
2024-01-28T06:07:21.476Z,100.00
2024-01-28T06:11:28.705Z,100.00
2024-01-28T06:15:32.786Z,100.00
2024-01-28T06:19:35.077Z,100.00
2024-01-28T06:23:37.921Z,100.00
2024-01-28T06:27:40.223Z,100.00
2024-01-28T06:31:42.707Z,100.00
2024-01-28T06:35:44.943Z,100.00
2024-01-28T06:39:52.826Z,100.00
2024-01-28T06:43:55.290Z,100.00
2024-01-28T06:47:57.520Z,100.00
2024-01-28T06:52:00.001Z,100.00
2024-01-28T06:56:02.252Z,100.00
2024-01-28T07:00:06.607Z,100.00
2024-01-28T07:04:08.914Z,100.00
2024-01-28T07:08:11.237Z,100.00
2024-01-28T07:12:13.505Z,100.00
2024-01-28T07:16:15.752Z,100.00
2024-01-28T07:20:18.142Z,100.00
2024-01-28T07:24:20.835Z,100.00
2024-01-28T07:28:23.492Z,100.00
2024-01-28T07:32:26.033Z,100.00
2024-01-28T07:36:30.665Z,100.00
2024-01-28T07:40:33.027Z,100.00
2024-01-28T07:44:35.875Z,100.00
2024-01-28T07:48:38.430Z,100.00
2024-01-28T07:52:42.317Z,100.00
2024-01-28T07:56:44.825Z,100.00
2024-01-28T08:00:47.271Z,100.00
2024-01-28T08:04:50.437Z,100.00
2024-01-28T08:08:54.099Z,100.00
2024-01-28T08:12:57.100Z,100.00
2024-01-28T08:16:59.524Z,100.00
2024-01-28T08:21:01.762Z,100.00
2024-01-28T08:25:05.841Z,100.00
2024-01-28T08:29:08.106Z,100.00
2024-01-28T08:33:10.398Z,100.00
2024-01-28T08:37:13.160Z,100.00
2024-01-28T08:41:15.415Z,100.00
2024-01-28T08:45:17.734Z,100.00
2024-01-28T08:49:20.124Z,100.00
2024-01-28T08:53:22.637Z,100.00
2024-01-28T08:57:24.820Z,100.00
2024-01-28T09:01:27.353Z,100.00
2024-01-28T09:05:29.861Z,100.00
2024-01-28T09:09:32.236Z,100.00
2024-01-28T09:13:34.497Z,100.00
2024-01-28T09:17:36.852Z,100.00
2024-01-28T09:21:39.388Z,100.00
2024-01-28T09:25:41.701Z,100.00
2024-01-28T09:29:43.975Z,100.00
2024-01-28T09:33:46.286Z,100.00
2024-01-28T09:37:49.487Z,100.00
2024-01-28T09:42:22.904Z,100.00
2024-01-28T09:46:25.690Z,100.00
2024-01-28T09:50:29.113Z,100.00
2024-01-28T09:54:31.456Z,100.00
2024-01-28T09:58:33.664Z,100.00
2024-01-28T10:02:37.212Z,99.49
2024-01-28T10:06:39.715Z,96.67
2024-01-28T10:10:42.151Z,93.05
2024-01-28T10:14:53.528Z,84.23
2024-01-28T10:18:56.571Z,83.24
2024-01-28T10:22:59.149Z,78.81
2024-01-28T10:27:01.704Z,80.77
2024-01-28T10:31:04.462Z,68.84
2024-01-28T10:35:14.181Z,68.99
2024-01-28T10:39:18.824Z,68.09
2024-01-28T10:43:25.850Z,43.03
2024-01-28T10:47:32.431Z,63.43
2024-01-28T10:51:36.943Z,59.47
2024-01-28T10:55:41.078Z,58.47
2024-01-28T10:59:44.340Z,62.07
2024-01-28T11:03:47.409Z,58.28
2024-01-28T11:07:51.336Z,54.31
2024-01-28T11:11:54.700Z,56.25
2024-01-28T11:15:57.528Z,58.43
2024-01-28T11:20:11.352Z,45.81
2024-01-28T11:24:15.587Z,56.52
2024-01-28T11:28:19.457Z,56.57
2024-01-28T11:32:33.462Z,45.65
2024-01-28T11:36:39.755Z,53.47
2024-01-28T11:40:47.679Z,54.66
2024-01-28T11:44:50.001Z,54.50
2024-01-28T11:48:52.469Z,53.53
2024-01-28T11:52:54.878Z,54.08
2024-01-28T11:56:57.365Z,52.40
2024-01-28T12:00:59.963Z,51.84
2024-01-28T12:05:04.869Z,53.01
2024-01-28T12:09:07.191Z,52.74
2024-01-28T12:13:13.689Z,52.40
2024-01-28T12:17:16.551Z,52.27
2024-01-28T12:21:24.001Z,50.71
2024-01-28T12:25:26.616Z,50.64
2024-01-28T12:29:29.221Z,49.50
2024-01-28T12:33:31.690Z,49.30
2024-01-28T12:37:41.262Z,44.10
2024-01-28T12:41:43.724Z,49.86
2024-01-28T12:45:46.025Z,48.54
2024-01-28T12:49:48.262Z,47.86
2024-01-28T12:53:52.984Z,47.93
2024-01-28T12:57:55.653Z,48.07
2024-01-28T13:01:59.026Z,48.28
2024-01-28T13:06:01.893Z,47.71
2024-01-28T13:10:05.123Z,47.57
2024-01-28T13:14:07.473Z,48.30
2024-01-28T13:18:21.002Z,47.78
2024-01-28T13:22:31.944Z,46.79
2024-01-28T13:26:34.272Z,46.61
2024-01-28T13:30:37.077Z,46.26
2024-01-28T13:34:39.864Z,45.60
2024-01-28T13:38:43.318Z,46.09
2024-01-28T13:42:45.545Z,45.83
2024-01-28T13:46:47.897Z,46.43
2024-01-28T13:50:50.165Z,46.25
2024-01-28T13:54:52.487Z,46.42
2024-01-28T13:58:54.935Z,46.18
2024-01-28T14:02:57.309Z,46.51
2024-01-28T14:06:59.791Z,46.49
2024-01-28T14:11:02.072Z,45.75
2024-01-28T14:15:04.593Z,45.33
2024-01-28T14:19:06.975Z,46.09
2024-01-28T14:23:09.245Z,45.94
2024-01-28T14:27:11.594Z,45.59
2024-01-28T14:31:13.940Z,46.11
2024-01-28T14:35:16.179Z,45.72
2024-01-28T14:39:18.459Z,45.22
2024-01-28T14:43:20.869Z,46.12
2024-01-28T14:47:23.181Z,45.02
2024-01-28T14:51:25.380Z,44.80
2024-01-28T14:55:27.708Z,44.77
2024-01-28T14:59:30.077Z,44.49
2024-01-28T15:03:32.497Z,45.00
2024-01-28T15:07:34.887Z,44.97
2024-01-28T15:11:37.549Z,43.83
2024-01-28T15:15:39.893Z,44.48
2024-01-28T15:19:42.362Z,44.12
2024-01-28T15:23:44.684Z,44.32
2024-01-28T15:27:47.238Z,44.52
2024-01-28T15:31:49.851Z,44.50
2024-01-28T15:35:53.834Z,45.26
2024-01-28T15:39:56.244Z,44.81
2024-01-28T15:43:59.532Z,44.98
2024-01-28T15:48:03.701Z,45.39
2024-01-28T15:52:06.428Z,45.84
2024-01-28T15:56:09.566Z,46.00
2024-01-28T16:00:13.521Z,46.24
2024-01-28T16:04:16.976Z,46.80
2024-01-28T16:08:19.983Z,46.96
2024-01-28T16:12:22.554Z,47.15
2024-01-28T16:16:26.015Z,47.22
2024-01-28T16:20:28.446Z,47.39
2024-01-28T16:24:31.454Z,47.74
2024-01-28T16:28:34.187Z,47.90
2024-01-28T16:32:36.819Z,47.93
2024-01-28T16:36:39.506Z,48.41
2024-01-28T16:40:41.956Z,48.84
2024-01-28T16:44:44.452Z,49.21
2024-01-28T16:48:46.798Z,49.38
2024-01-28T16:52:49.333Z,49.24
2024-01-28T16:56:51.594Z,49.16
2024-01-28T17:00:58.285Z,50.07
2024-01-28T17:05:05.608Z,50.20
2024-01-28T17:09:07.839Z,50.73
2024-01-28T17:13:11.148Z,50.46
2024-01-28T17:17:14.441Z,51.00
2024-01-28T17:21:19.412Z,52.01
2024-01-28T17:25:22.604Z,51.64
2024-01-28T17:29:24.966Z,52.63
2024-01-28T17:33:27.608Z,52.24
2024-01-28T17:37:31.328Z,52.48
2024-01-28T17:41:34.122Z,52.23
2024-01-28T17:45:37.127Z,52.42
2024-01-28T17:49:39.703Z,52.52
2024-01-28T17:53:43.486Z,52.63
2024-01-28T17:57:46.317Z,52.40
2024-01-28T18:01:48.769Z,53.26
2024-01-28T18:05:52.143Z,54.06
2024-01-28T18:09:54.388Z,53.61
2024-01-28T18:13:57.079Z,53.28
2024-01-28T18:17:59.573Z,53.08
2024-01-28T18:22:05.535Z,52.95
2024-01-28T18:26:08.529Z,51.09
2024-01-28T18:30:11.284Z,51.54
2024-01-28T18:34:13.927Z,51.91
2024-01-28T18:38:17.808Z,51.76
2024-01-28T18:42:20.065Z,51.09
2024-01-28T18:46:22.515Z,53.63
2024-01-28T18:50:25.078Z,54.11
2024-01-28T18:54:27.484Z,55.31
2024-01-28T18:58:29.689Z,54.71
2024-01-28T19:02:32.268Z,56.20
2024-01-28T19:06:34.630Z,57.83
2024-01-28T19:10:37.221Z,57.72
2024-01-28T19:14:39.422Z,58.71
2024-01-28T19:18:43.690Z,59.79
2024-01-28T19:22:45.912Z,63.48
2024-01-28T19:26:48.100Z,66.13
2024-01-28T19:30:50.366Z,74.73
2024-01-28T19:34:52.943Z,70.77
2024-01-28T19:38:56.472Z,70.92
2024-01-28T19:42:58.858Z,71.11
2024-01-28T19:47:01.169Z,76.98
2024-01-28T19:51:03.893Z,72.94
2024-01-28T19:55:06.433Z,74.66
2024-01-28T19:59:08.867Z,73.01
2024-01-28T20:03:11.461Z,75.19
2024-01-28T20:07:16.417Z,76.01
2024-01-28T20:11:19.681Z,77.01
2024-01-28T20:15:24.274Z,76.36
2024-01-28T20:23:31.110Z,81.07
2024-01-28T20:27:33.779Z,79.95
2024-01-28T20:31:36.345Z,83.18
2024-01-28T20:35:39.159Z,82.88
2024-01-28T20:39:41.824Z,85.55
2024-01-28T20:43:44.359Z,86.90
2024-01-28T20:47:47.101Z,89.49
2024-01-28T20:51:49.585Z,89.20
2024-01-28T20:55:51.804Z,92.60
2024-01-28T20:59:54.413Z,90.20
2024-01-28T21:03:58.152Z,91.35
2024-01-28T21:08:00.946Z,90.34
2024-01-28T21:12:03.797Z,90.09
2024-01-28T21:16:07.069Z,91.12
2024-01-28T21:20:11.715Z,98.58
2024-01-28T21:24:14.123Z,96.87
2024-01-28T21:28:20.759Z,100.00
2024-01-28T21:32:23.619Z,100.00
2024-01-28T21:36:26.507Z,100.00
2024-01-28T21:40:29.688Z,100.00
2024-01-28T21:44:32.325Z,100.00
2024-01-28T21:48:35.981Z,100.00
2024-01-28T21:52:38.255Z,99.42
2024-01-28T21:56:41.293Z,100.00
2024-01-28T22:00:44.321Z,99.18
2024-01-28T22:04:47.562Z,98.71
2024-01-28T22:08:50.062Z,98.53
2024-01-28T22:12:52.762Z,100.00
2024-01-28T22:16:55.065Z,100.00
2024-01-28T22:20:57.349Z,100.00
2024-01-28T22:25:00.466Z,100.00
2024-01-28T22:29:02.840Z,100.00
2024-01-28T22:33:05.678Z,100.00
2024-01-28T22:37:08.697Z,100.00
2024-01-28T22:41:11.132Z,100.00
2024-01-28T22:45:13.428Z,100.00
2024-01-28T22:49:15.940Z,100.00
2024-01-28T22:53:18.999Z,100.00
2024-01-28T22:57:23.657Z,100.00
2024-01-28T23:01:27.092Z,100.00
2024-01-28T23:05:29.678Z,100.00
2024-01-28T23:09:31.934Z,100.00
2024-01-28T23:13:36.543Z,100.00
2024-01-28T23:17:39.537Z,100.00
2024-01-28T23:21:41.972Z,100.00
2024-01-28T23:25:44.288Z,100.00
2024-01-28T23:29:46.522Z,100.00
2024-01-28T23:33:48.970Z,100.00
2024-01-28T23:37:51.506Z,100.00
2024-01-28T23:41:53.789Z,100.00
2024-01-28T23:45:56.092Z,100.00
2024-01-28T23:49:59.792Z,100.00
2024-01-28T23:54:02.044Z,100.00
2024-01-28T23:58:15.024Z,100.00
